Time;durP1;ratioP1;P1;durP2;ratioP2;P2;SDS_P1;SDS_P2;PMS_P1;PMS_P2;Temp;Humidity;BMP_temperature;BMP_pressure;BME280_temperature;BME280_humidity;BME280_pressure;Samples;Min_cycle;Max_cycle;Signal;HPM_P1;HPM_P2
2023/02/14 00:01:37;;;;;;;26.95;11.13;;;;;;;1.39;63.59;95286.31;5105736;28;20026;-82
2023/02/14 00:04:04;;;;;;;23.00;10.45;;;;;;;1.37;63.55;95290.19;5107047;28;20028;-81
2023/02/14 00:06:34;;;;;;;26.63;12.70;;;;;;;1.35;63.66;95295.66;5106805;28;20043;-81
2023/02/14 00:09:06;;;;;;;25.02;12.40;;;;;;;1.33;63.96;95291.66;5106901;28;20047;-82
2023/02/14 00:11:32;;;;;;;24.35;12.60;;;;;;;1.34;63.91;95288.00;5106806;28;20054;-82
2023/02/14 00:16:42;;;;;;;28.10;13.27;;;;;;;1.30;64.05;95287.63;5106912;28;20072;-81
2023/02/14 00:19:10;;;;;;;21.92;12.48;;;;;;;1.33;64.23;95286.41;5106826;28;20035;-81
2023/02/14 00:21:37;;;;;;;24.40;12.57;;;;;;;1.24;64.29;95293.75;5106500;28;20019;-81
2023/02/14 00:24:09;;;;;;;22.67;12.73;;;;;;;1.18;64.16;95295.47;5106438;28;20012;-81
2023/02/14 00:26:37;;;;;;;;;;;;;;;1.19;64.68;95307.56;5107047;28;20051;-81
2023/02/14 00:29:03;;;;;;;24.35;12.52;;;;;;;1.11;64.86;95296.53;5106598;28;19988;-81
2023/02/14 00:31:28;;;;;;;21.65;11.35;;;;;;;1.10;65.21;95298.38;5106447;28;20019;-81
2023/02/14 00:33:54;;;;;;;23.58;13.05;;;;;;;1.08;65.33;95289.09;5106045;28;20039;-79
2023/02/14 00:36:20;;;;;;;24.80;12.00;;;;;;;1.13;65.33;95286.63;5106392;28;20016;-79
2023/02/14 00:38:46;;;;;;;24.58;12.45;;;;;;;1.07;65.29;95296.16;5106534;28;20020;-79
2023/02/14 00:41:18;;;;;;;22.20;11.50;;;;;;;1.08;65.14;95292.53;5106420;28;20040;-80
2023/02/14 00:43:47;;;;;;;25.92;12.32;;;;;;;1.17;65.04;95293.03;5106298;28;20044;-80
2023/02/14 00:46:13;;;;;;;24.67;12.10;;;;;;;1.13;65.04;95286.63;5105817;28;20111;-80
2023/02/14 00:48:39;;;;;;;23.20;12.45;;;;;;;1.12;64.97;95282.38;5104738;28;20265;-82
2023/02/14 00:51:05;;;;;;;27.70;12.10;;;;;;;1.15;65.02;95282.75;5104844;28;20074;-81
2023/02/14 00:53:30;;;;;;;29.45;12.93;;;;;;;1.16;64.64;95280.91;5104716;28;20032;-81
2023/02/14 00:55:56;;;;;;;32.63;13.35;;;;;;;1.15;64.73;95279.31;5104610;28;20322;-82
2023/02/14 00:58:21;;;;;;;27.27;13.50;;;;;;;1.15;64.56;95268.81;5104815;28;20266;-82
2023/02/14 01:00:47;;;;;;;28.60;14.48;;;;;;;1.12;64.90;95270.06;5104681;28;20024;-81
2023/02/14 01:03:12;;;;;;;19.27;10.50;;;;;;;1.08;64.65;95261.03;5104710;28;20031;-83
2023/02/14 01:05:38;;;;;;;25.50;12.73;;;;;;;1.07;64.77;95263.88;5104222;28;20141;-82
2023/02/14 01:08:03;;;;;;;25.33;13.40;;;;;;;1.06;64.87;95278.00;5103370;28;20055;-82
2023/02/14 01:10:29;;;;;;;26.90;14.80;;;;;;;1.10;64.93;95277.38;5104672;28;20024;-83
2023/02/14 01:12:54;;;;;;;27.98;13.85;;;;;;;1.08;64.61;95268.91;5104489;28;20027;-82
2023/02/14 01:15:20;;;;;;;25.83;12.27;;;;;;;1.09;64.63;95241.59;5104556;28;20378;-83
2023/02/14 01:17:45;;;;;;;22.52;12.50;;;;;;;1.05;64.50;95271.94;5104334;28;20249;-82
2023/02/14 01:20:11;;;;;;;26.30;13.57;;;;;;;1.04;65.04;95280.88;5104421;28;20016;-82
2023/02/14 01:22:37;;;;;;;25.13;13.98;;;;;;;1.09;64.90;95265.25;5104640;28;20341;-81
2023/02/14 01:25:03;;;;;;;26.55;14.50;;;;;;;1.07;64.80;95251.53;5104173;28;20012;-81
2023/02/14 01:27:29;;;;;;;32.15;14.30;;;;;;;1.00;64.65;95256.84;5104224;28;20020;-82
2023/02/14 01:29:55;;;;;;;27.35;15.57;;;;;;;0.99;64.95;95247.38;5104058;28;20022;-81
2023/02/14 01:32:20;;;;;;;26.17;12.98;;;;;;;1.00;64.65;95254.22;5104207;28;20061;-81
2023/02/14 01:34:46;;;;;;;30.90;14.35;;;;;;;0.98;64.69;95234.47;5104321;28;20016;-81
2023/02/14 01:37:13;;;;;;;24.05;12.38;;;;;;;0.96;64.70;95250.44;5104378;28;20020;-81
2023/02/14 01:39:39;;;;;;;29.65;14.60;;;;;;;0.96;64.69;95242.56;5103904;28;20315;-81
2023/02/14 01:42:05;;;;;;;30.17;13.88;;;;;;;1.04;64.57;95245.91;5103971;28;20016;-81
2023/02/14 01:44:30;;;;;;;29.02;14.45;;;;;;;1.04;64.62;95227.53;5102802;28;20381;-81
2023/02/14 01:46:57;;;;;;;31.63;15.57;;;;;;;1.05;64.56;95221.25;5060336;28;1247845;-80
2023/02/14 01:49:34;;;;;;;23.45;12.00;;;;;;;1.05;64.55;95226.53;5104949;28;20020;-80
2023/02/14 01:52:05;;;;;;;26.50;13.45;;;;;;;1.04;64.34;95220.47;5104764;28;20032;-80
2023/02/14 01:54:34;;;;;;;26.93;14.67;;;;;;;1.01;64.68;95215.66;5104715;28;20028;-81
2023/02/14 01:57:05;;;;;;;26.98;14.10;;;;;;;1.00;64.48;95211.44;5104742;28;20051;-81
2023/02/14 01:59:35;;;;;;;28.63;15.23;;;;;;;0.97;64.71;95223.16;5104551;28;20024;-81
2023/02/14 02:02:02;;;;;;;36.28;16.42;;;;;;;0.99;63.98;95218.47;5104428;28;20024;-82
2023/02/14 02:04:33;;;;;;;26.50;14.15;;;;;;;1.05;64.19;95216.00;5104741;28;20016;-82
2023/02/14 02:07:01;;;;;;;27.70;14.13;;;;;;;1.12;64.38;95208.84;5104787;28;20023;-81
2023/02/14 02:09:30;;;;;;;33.70;16.17;;;;;;;1.04;64.38;95219.66;5104433;28;20319;-82
2023/02/14 02:11:56;;;;;;;29.58;14.93;;;;;;;1.06;64.14;95218.44;5104370;28;20028;-82
2023/02/14 02:14:22;;;;;;;28.40;14.93;;;;;;;1.08;64.80;95211.13;5103135;28;20028;-81
2023/02/14 02:16:56;;;;;;;33.75;16.73;;;;;;;1.10;64.46;95221.41;5103681;28;20121;-81
2023/02/14 02:19:59;;;;;;;36.85;14.75;;;;;;;1.11;64.37;95200.19;5102953;28;20062;-80
2023/02/14 02:22:52;;;;;;;27.33;14.77;;;;;;;1.12;64.29;95217.53;5104238;28;20023;-80
2023/02/14 02:25:45;;;;;;;32.33;14.73;;;;;;;1.14;64.21;95217.31;5104103;28;20253;-80
2023/02/14 02:29:01;;;;;;;26.02;13.70;;;;;;;1.11;64.01;95215.94;5104113;28;20250;-80
2023/02/14 02:32:03;;;;;;;22.73;11.07;;;;;;;1.11;64.18;95204.63;5104037;28;20043;-81
2023/02/14 02:34:53;;;;;;;25.83;12.15;;;;;;;1.08;64.11;95184.03;5103969;28;20326;-82
2023/02/14 02:37:37;;;;;;;29.25;13.55;;;;;;;1.06;64.25;95165.91;5103998;28;20098;-81
2023/02/14 02:40:34;;;;;;;36.50;13.50;;;;;;;1.10;64.21;95188.06;5103803;28;20016;-81
2023/02/14 02:43:29;;;;;;;29.42;13.57;;;;;;;1.06;63.69;95179.03;5102814;28;20081;-81
2023/02/14 02:48:51;;;;;;;25.42;11.65;;;;;;;1.03;63.71;95182.09;5103810;28;20078;-81
2023/02/14 02:54:33;;;;;;;21.52;10.10;;;;;;;1.04;63.79;95181.09;5079921;28;20099;-82
2023/02/14 02:57:22;;;;;;;25.85;12.57;;;;;;;1.07;63.71;95156.19;5102331;28;20381;-81
2023/02/14 02:59:50;;;;;;;24.63;10.32;;;;;;;0.98;64.22;95179.34;5103604;28;20273;-81
2023/02/14 03:02:22;;;;;;;29.92;11.75;;;;;;;0.98;64.28;95201.13;5103672;28;20024;-82
2023/02/14 03:04:54;;;;;;;24.77;12.50;;;;;;;0.94;64.47;95180.81;5102441;28;20027;-82
2023/02/14 03:07:34;;;;;;;21.50;10.43;;;;;;;0.94;64.41;95194.72;5103578;28;20065;-83
2023/02/14 03:10:22;;;;;;;21.98;11.00;;;;;;;0.97;64.34;95182.97;5103554;28;20067;-82
2023/02/14 03:13:02;;;;;;;22.30;11.00;;;;;;;0.97;64.36;95162.75;5103485;28;20249;-82
2023/02/14 03:15:46;;;;;;;25.48;11.38;;;;;;;0.98;64.09;95185.38;5103620;28;20057;-82
2023/02/14 03:18:34;;;;;;;26.52;12.02;;;;;;;1.02;63.89;95174.44;5103374;28;20028;-80
2023/02/14 03:21:27;;;;;;;27.95;12.18;;;;;;;1.02;63.87;95164.75;5097340;28;20043;-80
2023/02/14 03:24:02;;;;;;;23.23;10.88;;;;;;;0.94;63.92;95178.97;5103237;28;20027;-80
2023/02/14 03:26:48;;;;;;;24.10;11.95;;;;;;;0.92;64.29;95167.88;5103094;28;20027;-80
2023/02/14 03:29:28;;;;;;;26.42;12.90;;;;;;;0.87;64.07;95165.09;5103148;28;20353;-80
2023/02/14 03:32:07;;;;;;;25.40;11.20;;;;;;;0.90;64.10;95135.81;5103005;28;20020;-79
2023/02/14 03:34:44;;;;;;;24.38;11.65;;;;;;;0.88;64.11;95135.22;5103045;28;20019;-79
2023/02/14 03:37:30;;;;;;;23.50;12.27;;;;;;;0.85;64.08;95158.47;5102889;28;20020;-80
2023/02/14 03:40:15;;;;;;;22.95;11.15;;;;;;;0.80;64.09;95140.78;5102573;28;20036;-79
2023/02/14 03:42:57;;;;;;;29.88;12.20;;;;;;;0.79;64.41;95144.41;5103008;28;20027;-80
2023/02/14 03:45:45;;;;;;;26.30;11.38;;;;;;;0.75;64.43;95145.88;5102877;28;20012;-80
2023/02/14 03:48:13;;;;;;;29.30;12.15;;;;;;;0.74;64.20;95147.69;5102845;28;20023;-81
2023/02/14 03:50:42;;;;;;;23.25;11.32;;;;;;;0.74;63.75;95152.16;5103009;28;20020;-81
2023/02/14 03:53:10;;;;;;;25.77;11.35;;;;;;;0.73;64.05;95159.22;5102896;28;20061;-81
2023/02/14 03:55:42;;;;;;;24.85;11.23;;;;;;;0.76;64.07;95137.00;5102916;28;20310;-81
2023/02/14 03:58:15;;;;;;;27.95;11.70;;;;;;;0.77;63.88;95131.53;5102665;28;20016;-81
2023/02/14 04:00:42;;;;;;;23.20;11.07;;;;;;;0.78;63.89;95134.94;5101487;28;20099;-82
2023/02/14 04:03:14;;;;;;;28.65;11.57;;;;;;;0.77;64.03;95130.69;5102794;28;20024;-82
2023/02/14 04:05:42;;;;;;;22.40;10.00;;;;;;;0.78;63.52;95114.75;5102702;28;20065;-82
2023/02/14 04:08:09;;;;;;;24.05;11.65;;;;;;;0.82;63.73;95123.00;5102834;28;20028;-82
2023/02/14 04:10:35;;;;;;;20.45;10.70;;;;;;;0.76;63.76;95116.78;5102810;28;20020;-81
2023/02/14 04:13:01;;;;;;;25.42;11.30;;;;;;;0.72;63.35;95115.63;5102543;28;20045;-83
2023/02/14 04:15:26;;;;;;;23.67;11.57;;;;;;;0.67;63.68;95109.44;5102767;28;20035;-82
2023/02/14 04:20:36;;;;;;;23.77;9.75;;;;;;;0.70;64.00;95125.53;5102864;28;20093;-82
2023/02/14 04:23:02;;;;;;;28.45;10.48;;;;;;;0.65;64.10;95116.72;5102511;28;20314;-82
2023/02/14 04:25:28;;;;;;;32.75;10.93;;;;;;;0.67;63.86;95127.78;5102371;28;20310;-82
2023/02/14 04:27:53;;;;;;;32.33;12.10;;;;;;;0.65;64.38;95122.75;5102615;28;20016;-82
2023/02/14 04:30:19;;;;;;;18.88;10.20;;;;;;;0.66;64.19;95124.38;5102508;28;20016;-82
2023/02/14 04:32:45;;;;;;;17.58;11.00;;;;;;;0.66;64.05;95134.09;5102800;28;20115;-82
2023/02/14 04:35:11;;;;;;;22.65;10.35;;;;;;;0.66;63.64;95110.47;5102469;28;20238;-82
2023/02/14 04:37:36;;;;;;;20.92;10.55;;;;;;;0.64;63.84;95121.16;5102171;28;20028;-82
2023/02/14 04:40:02;;;;;;;16.65;8.95;;;;;;;0.68;63.57;95108.41;5103906;28;20023;-82
2023/02/14 04:42:28;;;;;;;22.25;10.73;;;;;;;0.68;63.34;95127.59;5106139;28;20024;-82
2023/02/14 04:44:54;;;;;;;24.42;9.88;;;;;;;0.74;63.64;95115.41;5106224;28;20306;-82
2023/02/14 04:47:19;;;;;;;16.83;8.75;;;;;;;0.65;63.98;95112.25;5104854;28;20405;-82
2023/02/14 04:49:45;;;;;;;17.33;9.07;;;;;;;0.63;63.97;95105.66;5106101;28;20019;-82
2023/02/14 04:52:11;;;;;;;19.40;9.85;;;;;;;0.65;64.10;95087.84;5106032;28;20022;-82
2023/02/14 04:54:37;;;;;;;23.52;9.43;;;;;;;0.67;63.64;95106.81;5105867;28;20020;-82
2023/02/14 04:57:03;;;;;;;20.05;10.55;;;;;;;0.63;63.84;95097.78;5104839;28;20247;-82
2023/02/14 04:59:28;;;;;;;23.88;10.27;;;;;;;0.65;63.79;95088.66;5105734;28;20027;-82
2023/02/14 05:01:54;;;;;;;22.30;9.75;;;;;;;0.65;63.66;95095.72;5105765;28;20214;-83
2023/02/14 05:04:19;;;;;;;26.13;10.13;;;;;;;0.61;63.16;95084.88;5105663;28;20051;-83
2023/02/14 05:06:45;;;;;;;24.30;9.98;;;;;;;0.63;63.31;95097.78;5105976;28;20020;-83
2023/02/14 05:09:10;;;;;;;23.08;9.98;;;;;;;0.56;63.37;95103.09;5105537;28;20028;-82
2023/02/14 05:11:35;;;;;;;19.25;9.73;;;;;;;0.54;62.94;95105.94;5105416;28;20023;-82
2023/02/14 05:14:01;;;;;;;28.33;10.23;;;;;;;0.64;63.46;95104.63;5105532;28;20016;-82
2023/02/14 05:16:26;;;;;;;24.08;11.05;;;;;;;0.56;63.21;95103.09;5105522;28;20016;-80
2023/02/14 05:18:52;;;;;;;18.90;9.23;;;;;;;0.59;63.09;95092.16;5105542;28;20020;-80
2023/02/14 05:21:17;;;;;;;20.33;8.63;;;;;;;0.60;63.25;95099.81;5104069;28;20016;-80
2023/02/14 05:23:43;;;;;;;20.17;10.43;;;;;;;0.59;63.32;95103.47;5105382;28;20111;-80
2023/02/14 05:26:09;;;;;;;20.45;10.07;;;;;;;0.66;63.29;95099.97;5105411;28;20078;-80
2023/02/14 05:28:34;;;;;;;19.80;9.43;;;;;;;0.60;63.22;95094.56;5105291;28;20069;-80
2023/02/14 05:31:00;;;;;;;17.85;10.40;;;;;;;0.68;63.25;95088.22;5105293;28;20024;-80
2023/02/14 05:33:26;;;;;;;25.35;10.57;;;;;;;0.65;63.35;95095.72;5105145;28;20319;-80
2023/02/14 05:35:52;;;;;;;25.10;10.13;;;;;;;0.67;63.28;95085.81;5103754;28;20116;-81
2023/02/14 05:38:17;;;;;;;18.35;9.35;;;;;;;0.65;63.74;95114.88;5104815;28;20097;-80
2023/02/14 05:40:44;;;;;;;20.92;10.02;;;;;;;0.67;63.24;95099.75;5105133;28;20020;-81
2023/02/14 05:43:10;;;;;;;20.70;9.88;;;;;;;0.67;63.94;95093.69;5105190;28;20046;-81
2023/02/14 05:45:35;;;;;;;13.93;7.70;;;;;;;0.69;63.56;95089.00;5104655;28;20306;-80
2023/02/14 05:48:01;;;;;;;22.13;9.63;;;;;;;0.66;63.60;95098.13;5104842;28;20027;-80
2023/02/14 05:50:27;;;;;;;22.42;9.43;;;;;;;0.66;63.97;95076.34;5104625;28;20019;-80
2023/02/14 05:52:53;;;;;;;20.38;10.65;;;;;;;0.70;63.88;95088.00;5104034;28;20020;-80
2023/02/14 05:55:18;;;;;;;19.13;9.65;;;;;;;0.72;63.70;95089.38;5104562;28;20023;-80
2023/02/14 05:57:44;;;;;;;22.35;11.15;;;;;;;0.71;63.68;95085.16;5104547;28;20252;-80
2023/02/14 06:00:10;;;;;;;18.33;9.82;;;;;;;0.75;63.47;95091.59;5104844;28;20052;-80
2023/02/14 06:02:36;;;;;;;19.88;10.20;;;;;;;0.78;63.33;95085.09;5104685;28;20028;-80
2023/02/14 06:05:01;;;;;;;19.00;10.27;;;;;;;0.79;62.97;95081.41;5104754;28;20028;-79
2023/02/14 06:07:27;;;;;;;23.75;11.43;;;;;;;0.88;62.89;95089.81;5104402;28;20035;-79
2023/02/14 06:09:52;;;;;;;23.50;10.40;;;;;;;0.94;62.72;95100.22;5104118;28;20031;-80
2023/02/14 06:12:17;;;;;;;22.77;10.18;;;;;;;1.02;62.54;95117.50;5104201;28;20028;-79
2023/02/14 06:14:43;;;;;;;20.27;10.50;;;;;;;1.06;62.44;95094.19;5104367;28;20047;-81
2023/02/14 06:17:09;;;;;;;24.65;11.35;;;;;;;1.10;62.53;95098.78;5104265;28;20087;-80
2023/02/14 06:19:35;;;;;;;25.90;12.10;;;;;;;1.10;62.55;95109.31;5104311;28;20024;-80
2023/02/14 06:22:01;;;;;;;25.50;11.40;;;;;;;1.17;62.78;95117.09;5104089;28;20202;-80
2023/02/14 06:24:26;;;;;;;24.10;11.85;;;;;;;1.19;62.35;95109.78;5104392;28;20024;-81
2023/02/14 06:26:52;;;;;;;22.52;13.07;;;;;;;1.25;62.05;95092.34;5104105;28;20028;-81
2023/02/14 06:29:17;;;;;;;27.90;12.13;;;;;;;1.27;62.35;95114.72;5104043;28;20092;-80
2023/02/14 06:31:43;;;;;;;21.25;11.60;;;;;;;1.33;62.58;95111.19;5104113;28;20069;-81
2023/02/14 06:34:09;;;;;;;21.70;12.02;;;;;;;1.32;62.52;95109.59;5103677;28;20091;-87
2023/02/14 06:36:34;;;;;;;23.05;12.65;;;;;;;1.36;62.32;95100.25;5104286;28;20038;-84
2023/02/14 06:39:00;;;;;;;23.23;11.48;;;;;;;1.33;62.71;95098.06;5102873;28;20089;-84
2023/02/14 06:41:25;;;;;;;21.40;9.90;;;;;;;1.39;62.66;95109.50;5103873;28;20035;-81
2023/02/14 06:43:51;;;;;;;17.90;10.18;;;;;;;1.43;62.55;95108.03;5104008;28;20020;-83
2023/02/14 06:46:17;;;;;;;22.13;10.85;;;;;;;1.41;62.71;95110.09;5103826;28;20153;-83
2023/02/14 06:48:43;;;;;;;21.33;11.13;;;;;;;1.51;62.91;95104.28;5102776;28;20055;-72
2023/02/14 06:51:08;;;;;;;20.70;11.35;;;;;;;1.47;62.89;95097.88;5103660;28;20027;-85
2023/02/14 06:53:34;;;;;;;21.67;10.95;;;;;;;1.49;62.70;95101.88;5103546;28;20030;-74
2023/02/14 06:55:59;;;;;;;21.48;10.60;;;;;;;1.45;62.54;95089.41;5103672;28;20065;-76
2023/02/14 06:58:25;;;;;;;22.90;11.07;;;;;;;1.53;63.55;95091.72;5103599;28;20024;-76
2023/02/14 07:00:50;;;;;;;18.05;9.65;;;;;;;1.53;62.99;95087.25;5103515;28;20031;-75
2023/02/14 07:03:16;;;;;;;17.75;10.63;;;;;;;1.54;62.77;95090.69;5103191;28;20028;-76
2023/02/14 07:05:43;;;;;;;26.65;11.43;;;;;;;1.59;62.64;95081.09;5103443;28;20024;-73
2023/02/14 07:08:09;;;;;;;20.90;10.55;;;;;;;1.63;62.63;95091.13;5103126;28;20230;-73
2023/02/14 07:10:34;;;;;;;16.80;8.30;;;;;;;1.60;63.18;95097.66;5103197;28;20024;-72
2023/02/14 07:13:00;;;;;;;18.52;9.80;;;;;;;1.63;63.25;95073.56;5103296;28;20031;-73
2023/02/14 07:15:25;;;;;;;20.13;11.05;;;;;;;1.60;63.65;95082.69;5103039;28;20091;-73
2023/02/14 07:17:51;;;;;;;19.42;9.88;;;;;;;1.57;63.66;95082.34;5103243;28;20027;-73
2023/02/14 07:20:17;;;;;;;19.40;10.55;;;;;;;1.59;63.81;95085.56;5103142;28;20091;-73
2023/02/14 07:22:43;;;;;;;20.27;9.82;;;;;;;1.66;63.79;95101.22;5103381;28;20023;-73
2023/02/14 07:25:08;;;;;;;16.58;9.75;;;;;;;1.64;63.75;95088.28;5103319;28;20011;-73
2023/02/14 07:27:34;;;;;;;16.60;9.80;;;;;;;1.62;63.79;95095.59;5103199;28;20249;-74
2023/02/14 07:29:59;;;;;;;21.23;11.25;;;;;;;1.67;64.34;95073.91;5103067;28;20020;-82
2023/02/14 07:32:25;;;;;;;20.20;10.60;;;;;;;1.70;64.38;95092.66;5103050;28;20020;-81
2023/02/14 07:34:50;;;;;;;24.52;11.45;;;;;;;1.68;64.72;95092.06;5101387;28;20031;-77
2023/02/14 07:37:16;;;;;;;23.40;10.63;;;;;;;1.69;64.94;95101.56;5101592;28;20023;-77
2023/02/14 07:39:43;;;;;;;17.50;8.60;;;;;;;1.62;65.02;95105.31;5101843;28;20092;-77
2023/02/14 07:42:09;;;;;;;21.98;10.05;;;;;;;1.58;65.03;95089.19;5101761;28;20095;-80
2023/02/14 07:44:37;;;;;;;23.63;10.98;;;;;;;1.58;65.66;95112.84;5101608;28;20047;-79
2023/02/14 07:47:02;;;;;;;23.65;11.00;;;;;;;1.59;65.93;95096.06;5101218;28;20051;-79
2023/02/14 07:49:28;;;;;;;19.83;11.05;;;;;;;1.58;65.76;95086.56;5101045;28;20020;-79
2023/02/14 07:51:57;;;;;;;18.30;9.40;;;;;;;1.55;65.29;95092.28;5101219;28;20091;-80
2023/02/14 07:54:22;;;;;;;23.02;10.73;;;;;;;1.61;65.60;95115.03;5100705;28;20055;-78
2023/02/14 07:56:48;;;;;;;21.15;10.77;;;;;;;1.65;65.68;95100.41;5100963;28;20020;-78
2023/02/14 07:59:14;;;;;;;22.30;10.95;;;;;;;1.62;65.82;95105.31;5101153;28;20062;-78
2023/02/14 08:01:39;;;;;;;18.30;9.02;;;;;;;1.66;65.95;95128.28;5101493;28;20048;-80
2023/02/14 08:04:05;;;;;;;19.45;9.95;;;;;;;1.60;66.10;95130.00;5102744;28;20062;-80
2023/02/14 08:06:30;;;;;;;22.58;10.93;;;;;;;1.58;66.35;95110.22;5102599;28;20027;-78
2023/02/14 08:08:55;;;;;;;19.63;9.68;;;;;;;1.60;66.43;95113.44;5102738;28;20026;-77
2023/02/14 08:14:05;;;;;;;18.58;10.18;;;;;;;1.63;66.28;95120.06;5102578;28;20089;-80
2023/02/14 08:16:33;;;;;;;16.95;8.85;;;;;;;1.68;65.66;95122.81;5106700;28;20307;-77
2023/02/14 08:19:00;;;;;;;17.75;9.25;;;;;;;1.60;66.42;95105.53;5106514;28;20016;-77
2023/02/14 08:21:25;;;;;;;22.10;11.32;;;;;;;1.63;66.57;95117.44;5105555;28;20136;-77
2023/02/14 08:23:51;;;;;;;25.52;10.80;;;;;;;1.69;66.52;95116.53;5106426;28;20024;-77
2023/02/14 08:26:16;;;;;;;19.50;9.27;;;;;;;1.72;66.44;95132.66;5106548;28;20057;-78
2023/02/14 08:28:43;;;;;;;22.25;10.13;;;;;;;1.61;67.00;95133.44;5106622;28;20089;-79
2023/02/14 08:31:09;;;;;;;17.33;10.00;;;;;;;1.72;66.91;95129.22;5106402;28;20032;-79
2023/02/14 08:33:34;;;;;;;34.97;14.13;;;;;;;1.71;67.87;95131.06;5106254;28;20107;-79
2023/02/14 08:36:01;;;;;;;48.22;16.92;;;;;;;1.68;68.61;95134.13;5106238;28;20024;-75
2023/02/14 08:38:27;;;;;;;35.63;15.45;;;;;;;1.64;68.79;95125.09;5106290;28;20047;-76
2023/02/14 08:40:52;;;;;;;26.15;13.80;;;;;;;1.62;68.94;95116.63;5105047;28;20383;-76
2023/02/14 08:43:18;;;;;;;43.78;17.48;;;;;;;1.65;69.15;95116.19;5106176;28;20344;-77
2023/02/14 08:45:43;;;;;;;27.35;12.25;;;;;;;1.61;68.91;95136.06;5105995;28;20039;-76
2023/02/14 08:48:10;;;;;;;34.63;13.35;;;;;;;1.48;69.51;95146.75;5105988;28;20211;-76
2023/02/14 08:50:39;;;;;;;30.02;12.80;;;;;;;1.50;69.87;95148.13;5105948;28;20030;-77
2023/02/14 08:53:10;;;;;;;31.02;12.18;;;;;;;1.39;70.48;95136.56;5105994;28;20082;-76
2023/02/14 08:55:36;;;;;;;21.42;10.85;;;;;;;1.34;71.06;95136.44;5105754;28;20245;-78
2023/02/14 08:58:02;;;;;;;25.15;11.48;;;;;;;1.29;71.42;95138.16;5104560;28;20199;-75
2023/02/14 09:00:28;;;;;;;29.90;12.40;;;;;;;1.30;71.65;95142.34;5105747;28;20091;-75
2023/02/14 09:02:53;;;;;;;27.02;11.45;;;;;;;1.35;71.91;95148.56;5104463;28;20058;-77
2023/02/14 09:05:22;;;;;;;24.48;11.00;;;;;;;1.20;72.57;95153.38;5105717;28;20024;-78
2023/02/14 09:07:47;;;;;;;26.65;11.93;;;;;;;1.10;73.19;95148.69;5105577;28;20035;-76
2023/02/14 09:10:13;;;;;;;31.88;14.43;;;;;;;1.11;73.58;95131.09;5105900;28;20082;-80
2023/02/14 09:12:40;;;;;;;36.17;12.75;;;;;;;1.14;73.45;95130.66;5105465;28;20087;-80
2023/02/14 09:15:06;;;;;;;30.70;13.63;;;;;;;1.10;73.52;95140.00;5105452;28;20090;-78
2023/02/14 09:17:31;;;;;;;34.63;14.18;;;;;;;1.21;73.55;95126.13;5105310;28;20356;-78
2023/02/14 09:19:57;;;;;;;28.30;11.80;;;;;;;1.24;73.27;95123.03;5105372;28;20015;-77
2023/02/14 09:22:22;;;;;;;31.80;13.43;;;;;;;1.20;73.53;95111.38;5104202;28;20325;-79
2023/02/14 09:24:48;;;;;;;28.27;12.90;;;;;;;1.24;73.13;95109.91;5105212;28;20031;-79
2023/02/14 09:27:13;;;;;;;33.70;14.10;;;;;;;1.29;72.95;95117.91;5105162;28;20023;-82
2023/02/14 09:29:39;;;;;;;23.90;11.15;;;;;;;1.30;72.45;95103.75;5105102;28;20031;-84
2023/02/14 09:32:04;;;;;;;23.05;10.38;;;;;;;1.26;72.03;95125.44;5104039;28;20020;-79
2023/02/14 09:34:31;;;;;;;22.42;11.00;;;;;;;1.26;71.74;95118.34;5105018;28;20012;-82
2023/02/14 09:39:41;;;;;;;20.67;10.00;;;;;;;1.26;71.31;95123.59;5105694;28;20346;-84
2023/02/14 09:42:09;;;;;;;22.10;11.20;;;;;;;1.31;70.78;95108.00;5105250;28;20028;-84
2023/02/14 09:44:57;;;;;;;21.25;10.57;;;;;;;1.28;70.31;95100.53;5105495;28;20103;-85
2023/02/14 09:47:23;;;;;;;27.60;9.90;;;;;;;1.36;70.27;95097.63;5105132;28;20077;-81
2023/02/14 09:49:50;;;;;;;28.52;13.00;;;;;;;1.37;69.83;95104.47;5104611;28;20028;-82
2023/02/14 09:52:18;;;;;;;28.02;11.63;;;;;;;1.40;70.02;95111.09;5105223;28;20044;-84
2023/02/14 09:54:50;;;;;;;24.20;12.02;;;;;;;1.42;69.93;95101.16;5105030;28;20039;-81
2023/02/14 09:57:31;;;;;;;23.10;9.77;;;;;;;1.35;69.94;95093.38;5104006;28;20028;-82
2023/02/14 10:00:11;;;;;;;26.98;12.18;;;;;;;1.33;70.33;95100.69;5104928;28;20032;-79
2023/02/14 10:03:10;;;;;;;23.60;10.82;;;;;;;1.37;69.75;95099.22;5103530;28;20035;-78
2023/02/14 10:05:44;;;;;;;28.85;13.40;;;;;;;1.38;69.58;95105.25;5104837;28;20024;-87
2023/02/14 10:08:31;;;;;;;29.30;12.38;;;;;;;1.46;69.41;95101.50;5104772;28;20026;-86
2023/02/14 10:11:05;;;;;;;27.85;13.23;;;;;;;1.49;69.54;95088.75;5105018;28;20335;-86
2023/02/14 10:13:37;;;;;;;24.42;11.18;;;;;;;1.47;68.69;95092.63;5104356;28;20055;-78
2023/02/14 10:16:23;;;;;;;26.25;12.68;;;;;;;1.55;68.93;95085.22;5104201;28;20218;-78
2023/02/14 10:19:18;;;;;;;23.42;10.90;;;;;;;1.54;68.03;95082.78;5104590;28;20016;-77
2023/02/14 10:21:59;;;;;;;23.73;11.35;;;;;;;1.64;68.48;95087.50;5085535;28;20361;-77
2023/02/14 10:24:38;;;;;;;21.02;10.15;;;;;;;1.59;67.77;95081.09;5104134;28;20047;-77
2023/02/14 10:27:25;;;;;;;24.15;10.13;;;;;;;1.56;67.83;95097.31;5104263;28;20254;-77
2023/02/14 10:29:50;;;;;;;21.73;10.15;;;;;;;1.65;67.78;95073.31;5104125;28;20314;-76
2023/02/14 10:32:55;;;;;;;24.15;9.48;;;;;;;1.59;67.70;95069.78;5104300;28;20033;-76
2023/02/14 10:35:23;;;;;;;17.13;9.50;;;;;;;1.56;68.04;95064.97;5061809;28;20037;-76
2023/02/14 10:38:16;;;;;;;24.48;11.38;;;;;;;1.64;67.56;95069.09;5090526;28;20055;-77
2023/02/14 10:41:12;;;;;;;26.52;9.38;;;;;;;1.72;67.47;95074.81;5102562;28;20070;-76
2023/02/14 10:44:22;;;;;;;17.92;7.82;;;;;;;1.79;66.90;95072.06;5103810;28;20036;-76
2023/02/14 10:47:21;;;;;;;16.67;8.32;;;;;;;1.67;67.02;95061.56;5080536;28;20040;-77
2023/02/14 10:50:25;;;;;;;17.85;7.63;;;;;;;1.71;66.69;95075.03;5103728;28;20340;-77
2023/02/14 10:53:21;;;;;;;15.50;6.55;;;;;;;1.54;66.61;95072.28;5087633;28;20090;-77
2023/02/14 10:55:58;;;;;;;17.42;7.68;;;;;;;1.52;66.79;95096.16;5103482;28;20031;-76
2023/02/14 10:58:28;;;;;;;16.85;8.52;;;;;;;1.47;67.31;95076.84;5103437;28;20091;-76
2023/02/14 11:01:05;;;;;;;16.63;7.65;;;;;;;1.25;68.02;95058.97;5103616;28;20273;-76
2023/02/14 11:03:34;;;;;;;16.15;8.90;;;;;;;1.32;68.43;95054.44;5103358;28;20095;-77
2023/02/14 11:05:59;;;;;;;17.02;8.38;;;;;;;1.37;67.74;95067.69;5103499;28;20095;-78
2023/02/14 11:08:31;;;;;;;18.98;9.43;;;;;;;1.38;67.86;95057.97;5103386;28;20027;-82
2023/02/14 11:11:23;;;;;;;16.10;7.57;;;;;;;1.33;67.40;95040.28;5102081;28;20101;-81
2023/02/14 11:13:49;;;;;;;13.25;6.63;;;;;;;1.36;67.08;95068.72;5101631;28;20341;-79
2023/02/14 11:16:36;;;;;;;21.15;7.75;;;;;;;1.40;67.17;95062.00;5102533;28;20086;-81
2023/02/14 11:19:17;;;;;;;14.15;6.97;;;;;;;1.43;67.10;95054.69;5103129;28;20027;-79
2023/02/14 11:21:45;;;;;;;18.08;8.15;;;;;;;1.48;66.96;95075.81;5103695;28;20047;-77
2023/02/14 11:24:19;;;;;;;17.23;7.75;;;;;;;1.44;66.84;95079.91;5103255;28;20020;-77
2023/02/14 11:26:47;;;;;;;12.73;6.32;;;;;;;1.30;66.67;95093.25;5103188;28;20054;-76
2023/02/14 11:29:20;;;;;;;10.55;5.35;;;;;;;1.19;67.14;95049.38;5103116;28;20218;-76
2023/02/14 11:31:46;;;;;;;15.23;7.32;;;;;;;1.17;67.71;95104.75;5102884;28;20024;-76
2023/02/14 11:34:30;;;;;;;14.70;6.93;;;;;;;1.23;67.58;95044.47;5102994;28;20255;-76
2023/02/14 11:36:55;;;;;;;18.80;7.85;;;;;;;1.21;67.68;95031.56;5103077;28;20121;-76
2023/02/14 11:39:29;;;;;;;15.80;8.43;;;;;;;1.31;67.32;95046.78;5102946;28;20039;-75
2023/02/14 11:41:57;;;;;;;15.60;8.43;;;;;;;1.29;67.02;95060.13;5102846;28;20230;-76
2023/02/14 11:44:25;;;;;;;15.98;7.13;;;;;;;1.31;67.10;95033.66;5102981;28;20024;-80
2023/02/14 11:46:53;;;;;;;17.85;8.95;;;;;;;1.32;67.09;95051.81;5102883;28;20379;-87
2023/02/14 11:49:33;;;;;;;14.82;6.93;;;;;;;1.32;66.59;95028.19;5105050;28;20036;-79
2023/02/14 11:52:25;;;;;;;12.23;6.68;;;;;;;1.36;66.22;95034.59;5107312;28;20043;-77
2023/02/14 11:54:54;;;;;;;;;;;;;;;1.41;66.60;95031.25;5107242;28;20069;-80
2023/02/14 11:57:36;;;;;;;13.07;6.30;;;;;;;1.37;65.50;94999.38;5106962;28;20098;-80
2023/02/14 12:00:14;;;;;;;10.75;5.70;;;;;;;1.38;65.20;95011.50;5106978;28;20027;-80